sensor_id;sensor_type;location;lat;lon;timestamp;P1;durP1;ratioP1;P2;durP2;ratioP2
12135;SDS011;6131;56.420;15.548;2024-01-11T00:00:35;3.23;;;2.10;;
12135;SDS011;6131;56.420;15.548;2024-01-11T00:03:01;3.63;;;2.27;;
12135;SDS011;6131;56.420;15.548;2024-01-11T00:05:27;2.50;;;2.00;;
12135;SDS011;6131;56.420;15.548;2024-01-11T00:07:53;3.87;;;2.13;;
12135;SDS011;6131;56.420;15.548;2024-01-11T00:10:19;3.00;;;1.90;;
12135;SDS011;6131;56.420;15.548;2024-01-11T00:12:46;3.40;;;2.33;;
12135;SDS011;6131;56.420;15.548;2024-01-11T00:15:12;2.57;;;1.90;;
12135;SDS011;6131;56.420;15.548;2024-01-11T00:17:38;3.13;;;2.07;;
12135;SDS011;6131;56.420;15.548;2024-01-11T00:20:05;3.63;;;2.50;;
12135;SDS011;6131;56.420;15.548;2024-01-11T00:22:31;4.40;;;2.17;;
12135;SDS011;6131;56.420;15.548;2024-01-11T00:24:57;3.53;;;2.30;;
12135;SDS011;6131;56.420;15.548;2024-01-11T00:27:23;3.20;;;2.20;;
12135;SDS011;6131;56.420;15.548;2024-01-11T00:29:49;3.47;;;2.23;;
12135;SDS011;6131;56.420;15.548;2024-01-11T00:32:15;2.93;;;2.40;;
12135;SDS011;6131;56.420;15.548;2024-01-11T00:34:41;3.27;;;2.00;;
12135;SDS011;6131;56.420;15.548;2024-01-11T00:37:07;2.77;;;2.20;;
12135;SDS011;6131;56.420;15.548;2024-01-11T00:39:33;2.97;;;2.23;;
12135;SDS011;6131;56.420;15.548;2024-01-11T00:41:59;3.17;;;2.03;;
12135;SDS011;6131;56.420;15.548;2024-01-11T00:44:25;4.83;;;2.47;;
12135;SDS011;6131;56.420;15.548;2024-01-11T00:46:51;3.00;;;2.33;;
12135;SDS011;6131;56.420;15.548;2024-01-11T00:49:17;4.23;;;2.13;;
12135;SDS011;6131;56.420;15.548;2024-01-11T00:51:43;2.90;;;2.27;;
12135;SDS011;6131;56.420;15.548;2024-01-11T00:54:09;2.97;;;1.93;;
12135;SDS011;6131;56.420;15.548;2024-01-11T00:56:35;3.07;;;2.00;;
12135;SDS011;6131;56.420;15.548;2024-01-11T00:59:01;4.87;;;2.23;;
12135;SDS011;6131;56.420;15.548;2024-01-11T01:01:27;3.63;;;1.93;;
12135;SDS011;6131;56.420;15.548;2024-01-11T01:03:53;2.87;;;1.80;;
12135;SDS011;6131;56.420;15.548;2024-01-11T01:06:19;3.47;;;2.27;;
12135;SDS011;6131;56.420;15.548;2024-01-11T01:08:45;3.40;;;2.20;;
12135;SDS011;6131;56.420;15.548;2024-01-11T01:11:11;3.13;;;2.00;;
12135;SDS011;6131;56.420;15.548;2024-01-11T01:13:37;3.10;;;2.00;;
12135;SDS011;6131;56.420;15.548;2024-01-11T01:16:03;3.17;;;2.17;;
12135;SDS011;6131;56.420;15.548;2024-01-11T01:18:29;3.00;;;2.20;;
12135;SDS011;6131;56.420;15.548;2024-01-11T01:20:55;5.10;;;2.27;;
12135;SDS011;6131;56.420;15.548;2024-01-11T01:23:21;2.97;;;2.07;;
12135;SDS011;6131;56.420;15.548;2024-01-11T01:25:48;2.57;;;1.90;;
12135;SDS011;6131;56.420;15.548;2024-01-11T01:28:14;2.13;;;1.87;;
12135;SDS011;6131;56.420;15.548;2024-01-11T01:30:40;2.40;;;1.90;;
12135;SDS011;6131;56.420;15.548;2024-01-11T01:33:06;3.17;;;1.97;;
12135;SDS011;6131;56.420;15.548;2024-01-11T01:35:32;2.67;;;1.97;;
12135;SDS011;6131;56.420;15.548;2024-01-11T01:37:59;3.90;;;2.20;;
12135;SDS011;6131;56.420;15.548;2024-01-11T01:40:25;2.80;;;1.93;;
12135;SDS011;6131;56.420;15.548;2024-01-11T01:42:57;2.53;;;1.90;;
12135;SDS011;6131;56.420;15.548;2024-01-11T01:45:23;3.63;;;2.00;;
12135;SDS011;6131;56.420;15.548;2024-01-11T01:47:49;2.77;;;1.90;;
12135;SDS011;6131;56.420;15.548;2024-01-11T01:50:15;2.87;;;1.80;;
12135;SDS011;6131;56.420;15.548;2024-01-11T01:52:43;2.83;;;1.77;;
12135;SDS011;6131;56.420;15.548;2024-01-11T01:55:09;2.37;;;1.90;;
12135;SDS011;6131;56.420;15.548;2024-01-11T01:57:35;4.23;;;2.10;;
12135;SDS011;6131;56.420;15.548;2024-01-11T02:00:02;3.33;;;1.83;;
12135;SDS011;6131;56.420;15.548;2024-01-11T02:02:28;3.90;;;1.90;;
12135;SDS011;6131;56.420;15.548;2024-01-11T02:04:55;3.23;;;2.17;;
12135;SDS011;6131;56.420;15.548;2024-01-11T02:07:22;2.70;;;2.00;;
12135;SDS011;6131;56.420;15.548;2024-01-11T02:09:49;2.97;;;2.00;;
12135;SDS011;6131;56.420;15.548;2024-01-11T02:12:16;3.50;;;2.00;;
12135;SDS011;6131;56.420;15.548;2024-01-11T02:14:42;3.63;;;2.10;;
12135;SDS011;6131;56.420;15.548;2024-01-11T02:17:08;4.07;;;2.20;;
12135;SDS011;6131;56.420;15.548;2024-01-11T02:19:34;2.63;;;1.73;;
12135;SDS011;6131;56.420;15.548;2024-01-11T02:22:02;4.73;;;2.07;;
12135;SDS011;6131;56.420;15.548;2024-01-11T02:24:30;2.70;;;1.80;;
12135;SDS011;6131;56.420;15.548;2024-01-11T02:27:00;2.63;;;1.80;;
12135;SDS011;6131;56.420;15.548;2024-01-11T02:29:27;3.83;;;2.00;;
12135;SDS011;6131;56.420;15.548;2024-01-11T02:31:53;3.07;;;1.90;;
12135;SDS011;6131;56.420;15.548;2024-01-11T02:34:19;3.50;;;2.07;;
12135;SDS011;6131;56.420;15.548;2024-01-11T02:36:46;3.87;;;1.97;;
12135;SDS011;6131;56.420;15.548;2024-01-11T02:39:13;2.97;;;1.90;;
12135;SDS011;6131;56.420;15.548;2024-01-11T02:41:39;2.67;;;1.87;;
12135;SDS011;6131;56.420;15.548;2024-01-11T02:44:05;2.67;;;2.07;;
12135;SDS011;6131;56.420;15.548;2024-01-11T02:46:31;3.80;;;2.30;;
12135;SDS011;6131;56.420;15.548;2024-01-11T02:48:58;3.07;;;2.07;;
12135;SDS011;6131;56.420;15.548;2024-01-11T02:51:24;3.33;;;2.10;;
12135;SDS011;6131;56.420;15.548;2024-01-11T02:53:50;2.60;;;1.80;;
12135;SDS011;6131;56.420;15.548;2024-01-11T02:56:16;3.20;;;1.87;;
12135;SDS011;6131;56.420;15.548;2024-01-11T02:58:42;2.53;;;1.73;;
12135;SDS011;6131;56.420;15.548;2024-01-11T03:01:08;3.73;;;2.17;;
12135;SDS011;6131;56.420;15.548;2024-01-11T03:03:34;3.07;;;1.87;;
12135;SDS011;6131;56.420;15.548;2024-01-11T03:06:00;3.23;;;1.80;;
12135;SDS011;6131;56.420;15.548;2024-01-11T03:08:26;4.93;;;2.23;;
12135;SDS011;6131;56.420;15.548;2024-01-11T03:10:52;3.20;;;2.10;;
12135;SDS011;6131;56.420;15.548;2024-01-11T03:13:18;2.47;;;1.60;;
12135;SDS011;6131;56.420;15.548;2024-01-11T03:15:44;2.20;;;1.80;;
12135;SDS011;6131;56.420;15.548;2024-01-11T03:18:10;2.67;;;1.70;;
12135;SDS011;6131;56.420;15.548;2024-01-11T03:20:36;3.23;;;2.10;;
12135;SDS011;6131;56.420;15.548;2024-01-11T03:23:05;3.43;;;2.17;;
12135;SDS011;6131;56.420;15.548;2024-01-11T03:25:31;3.10;;;2.00;;
12135;SDS011;6131;56.420;15.548;2024-01-11T03:27:57;2.93;;;1.80;;
12135;SDS011;6131;56.420;15.548;2024-01-11T03:30:24;2.20;;;1.63;;
12135;SDS011;6131;56.420;15.548;2024-01-11T03:32:50;1.90;;;1.50;;
12135;SDS011;6131;56.420;15.548;2024-01-11T03:35:17;2.73;;;1.87;;
12135;SDS011;6131;56.420;15.548;2024-01-11T03:37:43;2.80;;;1.70;;
12135;SDS011;6131;56.420;15.548;2024-01-11T03:40:09;5.87;;;2.00;;
12135;SDS011;6131;56.420;15.548;2024-01-11T03:42:36;2.77;;;1.70;;
12135;SDS011;6131;56.420;15.548;2024-01-11T03:45:02;2.27;;;1.73;;
12135;SDS011;6131;56.420;15.548;2024-01-11T03:47:29;3.57;;;1.47;;
12135;SDS011;6131;56.420;15.548;2024-01-11T03:49:55;2.43;;;1.87;;
12135;SDS011;6131;56.420;15.548;2024-01-11T03:52:21;2.43;;;1.50;;
12135;SDS011;6131;56.420;15.548;2024-01-11T03:54:47;2.63;;;1.80;;
12135;SDS011;6131;56.420;15.548;2024-01-11T03:57:13;2.60;;;1.80;;
12135;SDS011;6131;56.420;15.548;2024-01-11T03:59:39;2.53;;;1.83;;
12135;SDS011;6131;56.420;15.548;2024-01-11T04:02:05;2.60;;;1.60;;
12135;SDS011;6131;56.420;15.548;2024-01-11T04:04:32;2.50;;;1.50;;
12135;SDS011;6131;56.420;15.548;2024-01-11T04:06:58;2.57;;;1.60;;
12135;SDS011;6131;56.420;15.548;2024-01-11T04:09:24;2.73;;;1.50;;
12135;SDS011;6131;56.420;15.548;2024-01-11T04:11:50;2.60;;;1.97;;
12135;SDS011;6131;56.420;15.548;2024-01-11T04:14:16;2.63;;;1.70;;
12135;SDS011;6131;56.420;15.548;2024-01-11T04:16:42;3.07;;;1.77;;
12135;SDS011;6131;56.420;15.548;2024-01-11T04:19:08;2.03;;;1.77;;
12135;SDS011;6131;56.420;15.548;2024-01-11T04:21:34;2.83;;;1.97;;
12135;SDS011;6131;56.420;15.548;2024-01-11T04:24:03;2.73;;;1.67;;
12135;SDS011;6131;56.420;15.548;2024-01-11T04:26:31;3.13;;;1.60;;
12135;SDS011;6131;56.420;15.548;2024-01-11T04:28:57;3.83;;;1.57;;
12135;SDS011;6131;56.420;15.548;2024-01-11T04:31:24;3.13;;;1.57;;
12135;SDS011;6131;56.420;15.548;2024-01-11T04:33:50;2.33;;;1.50;;
12135;SDS011;6131;56.420;15.548;2024-01-11T04:36:16;3.00;;;1.60;;
12135;SDS011;6131;56.420;15.548;2024-01-11T04:38:42;2.97;;;1.73;;
12135;SDS011;6131;56.420;15.548;2024-01-11T04:41:09;1.97;;;1.60;;
12135;SDS011;6131;56.420;15.548;2024-01-11T04:43:37;2.13;;;1.60;;
12135;SDS011;6131;56.420;15.548;2024-01-11T04:46:03;2.30;;;1.70;;
12135;SDS011;6131;56.420;15.548;2024-01-11T04:48:29;2.40;;;1.70;;
12135;SDS011;6131;56.420;15.548;2024-01-11T04:50:55;3.43;;;1.50;;
12135;SDS011;6131;56.420;15.548;2024-01-11T04:53:21;2.57;;;1.53;;
12135;SDS011;6131;56.420;15.548;2024-01-11T04:55:47;2.70;;;1.57;;
12135;SDS011;6131;56.420;15.548;2024-01-11T04:58:13;2.60;;;1.60;;
12135;SDS011;6131;56.420;15.548;2024-01-11T05:00:39;4.27;;;1.77;;
12135;SDS011;6131;56.420;15.548;2024-01-11T05:03:05;2.03;;;1.50;;
12135;SDS011;6131;56.420;15.548;2024-01-11T05:05:31;2.13;;;1.40;;
12135;SDS011;6131;56.420;15.548;2024-01-11T05:07:57;2.60;;;1.30;;
12135;SDS011;6131;56.420;15.548;2024-01-11T05:10:23;2.27;;;1.40;;
12135;SDS011;6131;56.420;15.548;2024-01-11T05:12:49;3.33;;;1.60;;
12135;SDS011;6131;56.420;15.548;2024-01-11T05:15:15;3.17;;;1.60;;
12135;SDS011;6131;56.420;15.548;2024-01-11T05:17:41;1.70;;;1.47;;
12135;SDS011;6131;56.420;15.548;2024-01-11T05:20:08;1.20;;;1.10;;
12135;SDS011;6131;56.420;15.548;2024-01-11T05:22:35;2.57;;;1.40;;
12135;SDS011;6131;56.420;15.548;2024-01-11T05:25:01;1.90;;;1.33;;
12135;SDS011;6131;56.420;15.548;2024-01-11T05:27:27;1.37;;;1.20;;
12135;SDS011;6131;56.420;15.548;2024-01-11T05:29:53;2.10;;;1.40;;
12135;SDS011;6131;56.420;15.548;2024-01-11T05:32:19;2.73;;;1.50;;
12135;SDS011;6131;56.420;15.548;2024-01-11T05:34:45;1.80;;;1.20;;
12135;SDS011;6131;56.420;15.548;2024-01-11T05:37:11;2.03;;;1.20;;
12135;SDS011;6131;56.420;15.548;2024-01-11T05:39:37;2.33;;;1.30;;
12135;SDS011;6131;56.420;15.548;2024-01-11T05:42:03;2.10;;;1.33;;
12135;SDS011;6131;56.420;15.548;2024-01-11T05:44:30;1.87;;;1.30;;
12135;SDS011;6131;56.420;15.548;2024-01-11T05:46:56;2.07;;;1.37;;
12135;SDS011;6131;56.420;15.548;2024-01-11T05:49:22;1.97;;;1.40;;
12135;SDS011;6131;56.420;15.548;2024-01-11T05:51:48;2.00;;;1.30;;
12135;SDS011;6131;56.420;15.548;2024-01-11T05:54:14;2.63;;;1.50;;
12135;SDS011;6131;56.420;15.548;2024-01-11T05:56:40;1.97;;;1.40;;
12135;SDS011;6131;56.420;15.548;2024-01-11T05:59:05;2.37;;;1.50;;
12135;SDS011;6131;56.420;15.548;2024-01-11T06:01:32;2.37;;;1.40;;
12135;SDS011;6131;56.420;15.548;2024-01-11T06:03:58;2.03;;;1.23;;
12135;SDS011;6131;56.420;15.548;2024-01-11T06:06:24;2.03;;;1.43;;
12135;SDS011;6131;56.420;15.548;2024-01-11T06:08:50;2.30;;;1.47;;
12135;SDS011;6131;56.420;15.548;2024-01-11T06:11:16;2.33;;;1.63;;
12135;SDS011;6131;56.420;15.548;2024-01-11T06:13:43;2.53;;;1.33;;
12135;SDS011;6131;56.420;15.548;2024-01-11T06:16:09;2.13;;;1.40;;
12135;SDS011;6131;56.420;15.548;2024-01-11T06:18:35;2.40;;;1.27;;
12135;SDS011;6131;56.420;15.548;2024-01-11T06:21:01;2.60;;;1.70;;
12135;SDS011;6131;56.420;15.548;2024-01-11T06:23:27;1.77;;;1.13;;
12135;SDS011;6131;56.420;15.548;2024-01-11T06:25:53;3.30;;;1.60;;
12135;SDS011;6131;56.420;15.548;2024-01-11T06:28:19;2.50;;;1.30;;
12135;SDS011;6131;56.420;15.548;2024-01-11T06:30:45;2.60;;;1.63;;
12135;SDS011;6131;56.420;15.548;2024-01-11T06:33:11;2.03;;;1.20;;
12135;SDS011;6131;56.420;15.548;2024-01-11T06:35:37;2.80;;;1.13;;
12135;SDS011;6131;56.420;15.548;2024-01-11T06:38:03;1.60;;;1.03;;
12135;SDS011;6131;56.420;15.548;2024-01-11T06:40:29;1.97;;;1.30;;
12135;SDS011;6131;56.420;15.548;2024-01-11T06:42:55;1.67;;;1.30;;
12135;SDS011;6131;56.420;15.548;2024-01-11T06:45:21;2.57;;;1.10;;
12135;SDS011;6131;56.420;15.548;2024-01-11T06:47:47;1.70;;;1.33;;
12135;SDS011;6131;56.420;15.548;2024-01-11T06:50:14;2.87;;;1.50;;
12135;SDS011;6131;56.420;15.548;2024-01-11T06:52:40;1.97;;;1.60;;
12135;SDS011;6131;56.420;15.548;2024-01-11T06:55:06;1.60;;;1.10;;
12135;SDS011;6131;56.420;15.548;2024-01-11T06:57:32;2.37;;;1.30;;
12135;SDS011;6131;56.420;15.548;2024-01-11T06:59:58;1.60;;;1.30;;
12135;SDS011;6131;56.420;15.548;2024-01-11T07:02:24;1.83;;;1.20;;
12135;SDS011;6131;56.420;15.548;2024-01-11T07:04:50;2.43;;;1.30;;
12135;SDS011;6131;56.420;15.548;2024-01-11T07:07:16;3.23;;;1.43;;
12135;SDS011;6131;56.420;15.548;2024-01-11T07:09:43;2.43;;;1.30;;
12135;SDS011;6131;56.420;15.548;2024-01-11T07:12:09;3.80;;;1.50;;
12135;SDS011;6131;56.420;15.548;2024-01-11T07:14:35;1.93;;;1.20;;
12135;SDS011;6131;56.420;15.548;2024-01-11T07:17:01;1.73;;;1.40;;
12135;SDS011;6131;56.420;15.548;2024-01-11T07:19:28;1.10;;;1.00;;
12135;SDS011;6131;56.420;15.548;2024-01-11T07:21:54;2.17;;;1.20;;
12135;SDS011;6131;56.420;15.548;2024-01-11T07:24:20;2.83;;;1.17;;
12135;SDS011;6131;56.420;15.548;2024-01-11T07:26:46;2.90;;;1.40;;
12135;SDS011;6131;56.420;15.548;2024-01-11T07:29:12;1.60;;;1.33;;
12135;SDS011;6131;56.420;15.548;2024-01-11T07:31:38;2.07;;;1.37;;
12135;SDS011;6131;56.420;15.548;2024-01-11T07:34:04;2.57;;;1.47;;
12135;SDS011;6131;56.420;15.548;2024-01-11T07:36:30;2.83;;;1.80;;
12135;SDS011;6131;56.420;15.548;2024-01-11T07:38:56;1.97;;;1.23;;
12135;SDS011;6131;56.420;15.548;2024-01-11T07:41:22;2.67;;;1.47;;
12135;SDS011;6131;56.420;15.548;2024-01-11T07:43:48;1.90;;;1.40;;
12135;SDS011;6131;56.420;15.548;2024-01-11T07:46:14;2.07;;;1.17;;
12135;SDS011;6131;56.420;15.548;2024-01-11T07:48:41;2.47;;;1.63;;
12135;SDS011;6131;56.420;15.548;2024-01-11T07:51:07;2.37;;;1.20;;
12135;SDS011;6131;56.420;15.548;2024-01-11T07:53:33;1.30;;;1.00;;
12135;SDS011;6131;56.420;15.548;2024-01-11T07:55:59;2.10;;;1.47;;
12135;SDS011;6131;56.420;15.548;2024-01-11T07:58:26;6.33;;;1.83;;
12135;SDS011;6131;56.420;15.548;2024-01-11T08:00:52;2.53;;;1.47;;
12135;SDS011;6131;56.420;15.548;2024-01-11T08:03:19;2.57;;;1.40;;
12135;SDS011;6131;56.420;15.548;2024-01-11T08:05:45;5.00;;;1.43;;
12135;SDS011;6131;56.420;15.548;2024-01-11T08:08:11;1.43;;;1.10;;
12135;SDS011;6131;56.420;15.548;2024-01-11T08:10:37;2.37;;;1.30;;
12135;SDS011;6131;56.420;15.548;2024-01-11T08:13:03;3.27;;;1.40;;
12135;SDS011;6131;56.420;15.548;2024-01-11T08:15:29;3.77;;;1.37;;
12135;SDS011;6131;56.420;15.548;2024-01-11T08:17:55;1.43;;;1.13;;
12135;SDS011;6131;56.420;15.548;2024-01-11T08:20:21;4.17;;;1.20;;
12135;SDS011;6131;56.420;15.548;2024-01-11T08:22:47;1.50;;;1.03;;
12135;SDS011;6131;56.420;15.548;2024-01-11T08:25:13;1.53;;;1.30;;
12135;SDS011;6131;56.420;15.548;2024-01-11T08:27:40;2.47;;;1.10;;
12135;SDS011;6131;56.420;15.548;2024-01-11T08:30:06;2.93;;;1.37;;
12135;SDS011;6131;56.420;15.548;2024-01-11T08:32:33;1.47;;;1.17;;
12135;SDS011;6131;56.420;15.548;2024-01-11T08:35:04;2.10;;;1.03;;
12135;SDS011;6131;56.420;15.548;2024-01-11T08:37:31;1.20;;;1.00;;
12135;SDS011;6131;56.420;15.548;2024-01-11T08:39:57;2.90;;;1.30;;
12135;SDS011;6131;56.420;15.548;2024-01-11T08:42:23;1.77;;;1.00;;
12135;SDS011;6131;56.420;15.548;2024-01-11T08:44:49;2.13;;;1.03;;
12135;SDS011;6131;56.420;15.548;2024-01-11T08:47:16;2.13;;;1.30;;
12135;SDS011;6131;56.420;15.548;2024-01-11T08:49:42;2.13;;;1.13;;
12135;SDS011;6131;56.420;15.548;2024-01-11T08:52:08;1.50;;;1.10;;
12135;SDS011;6131;56.420;15.548;2024-01-11T08:54:34;1.77;;;1.00;;
12135;SDS011;6131;56.420;15.548;2024-01-11T08:57:00;4.23;;;1.40;;
12135;SDS011;6131;56.420;15.548;2024-01-11T08:59:26;2.33;;;1.10;;
12135;SDS011;6131;56.420;15.548;2024-01-11T09:01:52;1.63;;;1.03;;
12135;SDS011;6131;56.420;15.548;2024-01-11T09:04:18;1.70;;;1.10;;
12135;SDS011;6131;56.420;15.548;2024-01-11T09:06:45;1.30;;;0.97;;
12135;SDS011;6131;56.420;15.548;2024-01-11T09:09:11;2.07;;;1.10;;
12135;SDS011;6131;56.420;15.548;2024-01-11T09:11:38;2.00;;;1.20;;
12135;SDS011;6131;56.420;15.548;2024-01-11T09:14:06;1.73;;;1.30;;
12135;SDS011;6131;56.420;15.548;2024-01-11T09:16:32;3.20;;;1.20;;
12135;SDS011;6131;56.420;15.548;2024-01-11T09:18:58;2.23;;;1.10;;
12135;SDS011;6131;56.420;15.548;2024-01-11T09:21:27;1.50;;;1.00;;
12135;SDS011;6131;56.420;15.548;2024-01-11T09:23:53;1.50;;;1.10;;
12135;SDS011;6131;56.420;15.548;2024-01-11T09:26:19;1.40;;;1.10;;
12135;SDS011;6131;56.420;15.548;2024-01-11T09:28:45;2.67;;;1.10;;
12135;SDS011;6131;56.420;15.548;2024-01-11T09:31:11;1.60;;;1.00;;
12135;SDS011;6131;56.420;15.548;2024-01-11T09:33:37;1.60;;;1.07;;
12135;SDS011;6131;56.420;15.548;2024-01-11T09:36:03;2.17;;;0.87;;
12135;SDS011;6131;56.420;15.548;2024-01-11T09:38:30;2.73;;;1.00;;
12135;SDS011;6131;56.420;15.548;2024-01-11T09:40:59;1.13;;;0.70;;
12135;SDS011;6131;56.420;15.548;2024-01-11T09:43:28;0.93;;;0.80;;
12135;SDS011;6131;56.420;15.548;2024-01-11T09:45:54;1.20;;;0.80;;
12135;SDS011;6131;56.420;15.548;2024-01-11T09:48:21;2.00;;;0.90;;
12135;SDS011;6131;56.420;15.548;2024-01-11T09:50:48;1.73;;;1.00;;
12135;SDS011;6131;56.420;15.548;2024-01-11T09:53:16;1.27;;;0.77;;
12135;SDS011;6131;56.420;15.548;2024-01-11T09:55:42;1.40;;;0.70;;
12135;SDS011;6131;56.420;15.548;2024-01-11T09:58:08;3.20;;;0.87;;
12135;SDS011;6131;56.420;15.548;2024-01-11T10:00:35;1.07;;;0.67;;
12135;SDS011;6131;56.420;15.548;2024-01-11T10:03:01;0.77;;;0.70;;
12135;SDS011;6131;56.420;15.548;2024-01-11T10:05:27;2.00;;;0.77;;
12135;SDS011;6131;56.420;15.548;2024-01-11T10:07:54;1.20;;;0.73;;
12135;SDS011;6131;56.420;15.548;2024-01-11T10:10:20;1.43;;;0.80;;
12135;SDS011;6131;56.420;15.548;2024-01-11T10:12:47;2.63;;;0.77;;
12135;SDS011;6131;56.420;15.548;2024-01-11T10:15:14;1.60;;;0.70;;
12135;SDS011;6131;56.420;15.548;2024-01-11T10:17:43;1.57;;;0.70;;
12135;SDS011;6131;56.420;15.548;2024-01-11T10:20:11;1.80;;;0.70;;
12135;SDS011;6131;56.420;15.548;2024-01-11T10:22:39;0.80;;;0.70;;
12135;SDS011;6131;56.420;15.548;2024-01-11T10:25:12;1.77;;;0.80;;
12135;SDS011;6131;56.420;15.548;2024-01-11T10:27:42;0.93;;;0.60;;
12135;SDS011;6131;56.420;15.548;2024-01-11T10:30:08;1.40;;;0.70;;
12135;SDS011;6131;56.420;15.548;2024-01-11T10:32:35;0.87;;;0.67;;
12135;SDS011;6131;56.420;15.548;2024-01-11T10:35:01;1.53;;;0.80;;
12135;SDS011;6131;56.420;15.548;2024-01-11T10:37:31;1.30;;;0.60;;
12135;SDS011;6131;56.420;15.548;2024-01-11T10:40:04;2.00;;;0.90;;
12135;SDS011;6131;56.420;15.548;2024-01-11T10:42:43;0.93;;;0.63;;
12135;SDS011;6131;56.420;15.548;2024-01-11T10:45:13;1.97;;;0.67;;
12135;SDS011;6131;56.420;15.548;2024-01-11T10:47:41;1.63;;;0.70;;
12135;SDS011;6131;56.420;15.548;2024-01-11T10:50:09;0.67;;;0.50;;
12135;SDS011;6131;56.420;15.548;2024-01-11T10:52:36;1.43;;;0.90;;
12135;SDS011;6131;56.420;15.548;2024-01-11T10:55:09;1.37;;;0.70;;
12135;SDS011;6131;56.420;15.548;2024-01-11T10:57:35;0.97;;;0.70;;
12135;SDS011;6131;56.420;15.548;2024-01-11T11:00:01;1.17;;;0.70;;
12135;SDS011;6131;56.420;15.548;2024-01-11T11:02:28;1.83;;;0.70;;
12135;SDS011;6131;56.420;15.548;2024-01-11T11:04:55;1.60;;;0.60;;
12135;SDS011;6131;56.420;15.548;2024-01-11T11:07:21;2.20;;;0.80;;
12135;SDS011;6131;56.420;15.548;2024-01-11T11:09:49;1.00;;;0.60;;
12135;SDS011;6131;56.420;15.548;2024-01-11T11:12:15;1.57;;;0.80;;
12135;SDS011;6131;56.420;15.548;2024-01-11T11:14:42;2.00;;;0.90;;
12135;SDS011;6131;56.420;15.548;2024-01-11T11:17:09;1.33;;;0.73;;
12135;SDS011;6131;56.420;15.548;2024-01-11T11:19:35;1.07;;;0.70;;
12135;SDS011;6131;56.420;15.548;2024-01-11T11:22:03;2.10;;;0.60;;
12135;SDS011;6131;56.420;15.548;2024-01-11T11:24:30;1.47;;;0.70;;
12135;SDS011;6131;56.420;15.548;2024-01-11T11:26:56;1.00;;;0.57;;
12135;SDS011;6131;56.420;15.548;2024-01-11T11:29:24;2.00;;;0.60;;
12135;SDS011;6131;56.420;15.548;2024-01-11T11:31:50;1.07;;;0.70;;
12135;SDS011;6131;56.420;15.548;2024-01-11T11:34:37;1.03;;;0.70;;
12135;SDS011;6131;56.420;15.548;2024-01-11T11:37:06;1.57;;;0.60;;
12135;SDS011;6131;56.420;15.548;2024-01-11T11:39:32;1.10;;;0.60;;
12135;SDS011;6131;56.420;15.548;2024-01-11T11:41:58;2.70;;;0.67;;
12135;SDS011;6131;56.420;15.548;2024-01-11T11:44:26;0.90;;;0.50;;
12135;SDS011;6131;56.420;15.548;2024-01-11T11:46:52;1.47;;;0.60;;
12135;SDS011;6131;56.420;15.548;2024-01-11T11:49:18;2.33;;;0.80;;
12135;SDS011;6131;56.420;15.548;2024-01-11T11:51:44;1.50;;;0.70;;
12135;SDS011;6131;56.420;15.548;2024-01-11T11:54:10;1.47;;;0.50;;
12135;SDS011;6131;56.420;15.548;2024-01-11T11:56:39;3.00;;;0.80;;
12135;SDS011;6131;56.420;15.548;2024-01-11T11:59:05;0.83;;;0.63;;
12135;SDS011;6131;56.420;15.548;2024-01-11T12:01:32;1.43;;;0.70;;
12135;SDS011;6131;56.420;15.548;2024-01-11T12:03:59;1.33;;;0.60;;
12135;SDS011;6131;56.420;15.548;2024-01-11T12:06:27;0.70;;;0.53;;
12135;SDS011;6131;56.420;15.548;2024-01-11T12:08:54;1.07;;;0.60;;
12135;SDS011;6131;56.420;15.548;2024-01-11T12:11:20;0.73;;;0.60;;
12135;SDS011;6131;56.420;15.548;2024-01-11T12:13:47;0.97;;;0.70;;
12135;SDS011;6131;56.420;15.548;2024-01-11T12:16:13;0.90;;;0.63;;
12135;SDS011;6131;56.420;15.548;2024-01-11T12:18:40;0.80;;;0.70;;
12135;SDS011;6131;56.420;15.548;2024-01-11T12:21:06;0.90;;;0.60;;
12135;SDS011;6131;56.420;15.548;2024-01-11T12:23:33;1.23;;;0.63;;
12135;SDS011;6131;56.420;15.548;2024-01-11T12:26:03;1.13;;;0.63;;
12135;SDS011;6131;56.420;15.548;2024-01-11T12:28:31;1.50;;;0.53;;
12135;SDS011;6131;56.420;15.548;2024-01-11T12:30:58;0.97;;;0.63;;
12135;SDS011;6131;56.420;15.548;2024-01-11T12:33:24;1.33;;;0.70;;
12135;SDS011;6131;56.420;15.548;2024-01-11T12:35:50;1.83;;;0.60;;
12135;SDS011;6131;56.420;15.548;2024-01-11T12:38:16;1.97;;;0.90;;
12135;SDS011;6131;56.420;15.548;2024-01-11T12:40:43;1.40;;;0.70;;
12135;SDS011;6131;56.420;15.548;2024-01-11T12:43:11;2.00;;;0.80;;
12135;SDS011;6131;56.420;15.548;2024-01-11T12:45:38;1.97;;;0.60;;
12135;SDS011;6131;56.420;15.548;2024-01-11T12:48:07;1.73;;;0.90;;
12135;SDS011;6131;56.420;15.548;2024-01-11T12:50:34;2.83;;;0.77;;
12135;SDS011;6131;56.420;15.548;2024-01-11T12:53:10;2.20;;;0.70;;
12135;SDS011;6131;56.420;15.548;2024-01-11T12:55:46;2.07;;;0.80;;
12135;SDS011;6131;56.420;15.548;2024-01-11T12:58:12;0.70;;;0.50;;
12135;SDS011;6131;56.420;15.548;2024-01-11T13:00:39;1.70;;;0.70;;
12135;SDS011;6131;56.420;15.548;2024-01-11T13:03:05;2.37;;;0.60;;
12135;SDS011;6131;56.420;15.548;2024-01-11T13:05:31;2.30;;;0.80;;
12135;SDS011;6131;56.420;15.548;2024-01-11T13:08:09;0.93;;;0.70;;
12135;SDS011;6131;56.420;15.548;2024-01-11T13:10:36;2.40;;;0.60;;
12135;SDS011;6131;56.420;15.548;2024-01-11T13:13:02;1.03;;;0.60;;
12135;SDS011;6131;56.420;15.548;2024-01-11T13:15:28;1.20;;;0.70;;
12135;SDS011;6131;56.420;15.548;2024-01-11T13:17:56;1.67;;;0.70;;
12135;SDS011;6131;56.420;15.548;2024-01-11T13:20:22;1.10;;;0.70;;
12135;SDS011;6131;56.420;15.548;2024-01-11T13:22:49;1.33;;;0.70;;
12135;SDS011;6131;56.420;15.548;2024-01-11T13:25:16;1.53;;;0.53;;
12135;SDS011;6131;56.420;15.548;2024-01-11T13:27:42;1.27;;;0.77;;
12135;SDS011;6131;56.420;15.548;2024-01-11T13:30:08;0.60;;;0.53;;
12135;SDS011;6131;56.420;15.548;2024-01-11T13:32:34;0.70;;;0.60;;
12135;SDS011;6131;56.420;15.548;2024-01-11T13:35:00;0.70;;;0.67;;
12135;SDS011;6131;56.420;15.548;2024-01-11T13:37:26;0.83;;;0.80;;
12135;SDS011;6131;56.420;15.548;2024-01-11T13:39:52;0.93;;;0.60;;
12135;SDS011;6131;56.420;15.548;2024-01-11T13:42:18;0.70;;;0.60;;
12135;SDS011;6131;56.420;15.548;2024-01-11T13:44:44;1.20;;;0.53;;
12135;SDS011;6131;56.420;15.548;2024-01-11T13:47:10;2.13;;;0.60;;
12135;SDS011;6131;56.420;15.548;2024-01-11T13:49:37;1.60;;;0.50;;
12135;SDS011;6131;56.420;15.548;2024-01-11T13:52:04;1.80;;;0.60;;
12135;SDS011;6131;56.420;15.548;2024-01-11T13:54:31;1.53;;;0.50;;
12135;SDS011;6131;56.420;15.548;2024-01-11T13:56:57;1.30;;;0.60;;
12135;SDS011;6131;56.420;15.548;2024-01-11T13:59:23;1.77;;;0.60;;
12135;SDS011;6131;56.420;15.548;2024-01-11T14:01:49;0.80;;;0.40;;
12135;SDS011;6131;56.420;15.548;2024-01-11T14:04:15;0.80;;;0.40;;
12135;SDS011;6131;56.420;15.548;2024-01-11T14:06:41;1.37;;;0.50;;
12135;SDS011;6131;56.420;15.548;2024-01-11T14:09:07;2.03;;;0.60;;
12135;SDS011;6131;56.420;15.548;2024-01-11T14:11:34;0.60;;;0.40;;
12135;SDS011;6131;56.420;15.548;2024-01-11T14:14:03;1.00;;;0.50;;
12135;SDS011;6131;56.420;15.548;2024-01-11T14:16:29;1.03;;;0.57;;
12135;SDS011;6131;56.420;15.548;2024-01-11T14:18:55;0.73;;;0.50;;
12135;SDS011;6131;56.420;15.548;2024-01-11T14:21:21;0.93;;;0.50;;
12135;SDS011;6131;56.420;15.548;2024-01-11T14:23:49;2.33;;;0.60;;
12135;SDS011;6131;56.420;15.548;2024-01-11T14:26:16;1.33;;;0.60;;
12135;SDS011;6131;56.420;15.548;2024-01-11T14:28:42;0.77;;;0.40;;
12135;SDS011;6131;56.420;15.548;2024-01-11T14:31:08;1.90;;;0.50;;
12135;SDS011;6131;56.420;15.548;2024-01-11T14:33:35;0.67;;;0.50;;
12135;SDS011;6131;56.420;15.548;2024-01-11T14:36:01;0.80;;;0.50;;
12135;SDS011;6131;56.420;15.548;2024-01-11T14:38:27;0.83;;;0.40;;
12135;SDS011;6131;56.420;15.548;2024-01-11T14:40:53;0.77;;;0.40;;
12135;SDS011;6131;56.420;15.548;2024-01-11T14:43:19;1.13;;;0.50;;